Barham, United Kingdom
Current Conditions -  °F | °C
As of 5:50 PM on Sunday 21 Dec 2014 (Local Time) from EGMD Reporting Station
Broken Clouds Broken Clouds  
Wind Chill: 52°   Ceiling: 2100
Heat Index: 52°   Visibility: 6mi
Dew Point: 48°   Wind: 24mph
Humidity: 88%   Direction: 250°WSW
Pressure: 30.3"   Gusts: NA
Location:  51.21°N, 1.16°E
Report Text: EGMD 211750Z 25021KT 9999 BKN021 11/09 Q1026
Loading
Personal Weather Stations






























Interactive Weather Map New forecast layout! Learn more

10-Day Weather Forecast

Advertisements
Track Severe Weather on mobile